Time;durP1;ratioP1;P1;durP2;ratioP2;P2;SDS_P1;SDS_P2;PMS_P1;PMS_P2;Temp;Humidity;BMP_temperature;BMP_pressure;BME280_temperature;BME280_humidity;BME280_pressure;Samples;Min_cycle;Max_cycle;Signal;HPM_P1;HPM_P2
2021/09/27 00:00:30;;;;;;;183.10;58.40;;;;;;;11.74;75.95;102015.66;5029123;28;20500;-68
2021/09/27 00:03:00;;;;;;;190.30;65.17;;;;;;;11.88;79.36;102020.34;5028849;28;20494;-68
2021/09/27 00:05:29;;;;;;;185.87;58.23;;;;;;;11.91;80.70;102014.78;5028862;28;21145;-68
2021/09/27 00:07:57;;;;;;;187.13;62.13;;;;;;;11.96;80.14;102021.69;5028916;28;20459;-68
2021/09/27 00:10:28;;;;;;;175.93;56.07;;;;;;;12.09;79.49;102017.38;5029012;28;20452;-68
2021/09/27 00:12:57;;;;;;;135.90;42.97;;;;;;;12.17;83.23;102016.09;5029153;28;20800;-68
2021/09/27 00:15:29;;;;;;;127.50;37.77;;;;;;;12.23;83.70;102007.69;5028938;28;20441;-68
2021/09/27 00:17:59;;;;;;;192.53;69.17;;;;;;;12.29;81.17;102010.06;5029065;28;20950;-68
2021/09/27 00:20:27;;;;;;;211.23;84.40;;;;;;;12.37;81.27;102019.47;5028612;28;20491;-68
2021/09/27 00:22:56;;;;;;;220.67;89.53;;;;;;;12.41;81.72;102021.03;5043682;28;20542;-68
2021/09/27 00:25:26;;;;;;;213.40;80.27;;;;;;;12.48;83.58;102024.25;5028494;28;20447;-68
2021/09/27 00:27:55;;;;;;;215.97;86.67;;;;;;;12.55;81.85;102028.38;5029070;28;20459;-68
2021/09/27 00:30:23;;;;;;;225.87;100.37;;;;;;;12.58;82.66;102020.09;5028160;28;20448;-68
2021/09/27 00:32:52;;;;;;;213.17;85.27;;;;;;;12.57;83.91;102021.06;5028608;28;20509;-68
2021/09/27 00:35:24;;;;;;;235.40;101.03;;;;;;;12.55;81.63;101996.03;5028295;28;21051;-68
2021/09/27 00:37:52;;;;;;;210.80;60.73;;;;;;;12.69;84.27;102014.09;5028623;28;20493;-68
2021/09/27 00:40:27;;;;;;;211.53;65.20;;;;;;;12.80;83.88;102018.88;5028287;28;20463;-68
2021/09/27 00:42:56;;;;;;;208.80;62.23;;;;;;;12.76;86.16;102010.09;5028604;28;20529;-68
2021/09/27 00:45:27;;;;;;;215.13;74.67;;;;;;;12.80;86.54;102008.09;5028711;28;20444;-66
2021/09/27 00:47:55;;;;;;;206.03;72.87;;;;;;;12.75;87.00;102011.94;5028545;28;20934;-68
2021/09/27 00:50:28;;;;;;;207.97;76.37;;;;;;;12.72;85.98;101995.94;5028459;28;20963;-68
2021/09/27 00:52:57;;;;;;;202.53;67.90;;;;;;;12.89;85.52;101994.13;5028581;28;21008;-68
2021/09/27 00:55:26;;;;;;;199.87;64.97;;;;;;;12.91;84.21;102000.28;5028580;28;20488;-68
2021/09/27 00:57:55;;;;;;;196.17;63.83;;;;;;;12.89;82.03;101972.56;5028232;28;20448;-68
2021/09/27 01:00:30;;;;;;;198.30;67.13;;;;;;;13.08;81.69;101981.28;5030561;28;20458;-68
2021/09/27 01:02:58;;;;;;;198.87;66.87;;;;;;;13.13;81.87;101987.28;5022196;28;20557;-67
2021/09/27 01:05:28;;;;;;;195.00;58.77;;;;;;;13.12;82.55;101990.94;5031924;28;20513;-67
2021/09/27 01:08:20;;;;;;;207.00;75.60;;;;;;;13.18;79.78;101982.53;5032237;28;20865;-68
2021/09/27 01:11:11;;;;;;;210.37;70.50;;;;;;;13.20;79.94;101988.72;5026506;28;20462;-68
2021/09/27 01:13:55;;;;;;;208.67;69.87;;;;;;;13.23;79.48;101987.66;5031822;28;20435;-68
2021/09/27 01:16:29;;;;;;;229.43;89.93;;;;;;;13.15;81.52;101990.75;5031594;28;20864;-67
2021/09/27 01:19:28;;;;;;;191.03;62.57;;;;;;;13.11;81.98;101985.63;5031988;28;20914;-67
2021/09/27 01:22:05;;;;;;;187.47;56.10;;;;;;;13.06;82.16;101986.78;5018667;28;20475;-68
2021/09/27 01:24:54;;;;;;;174.23;49.10;;;;;;;12.79;82.61;101950.63;5031959;28;20545;-68
2021/09/27 01:27:51;;;;;;;217.73;83.27;;;;;;;12.88;82.94;101987.84;5031960;28;20478;-68
2021/09/27 01:30:51;;;;;;;184.60;60.90;;;;;;;12.87;81.53;101988.81;5031683;28;20501;-68
2021/09/27 01:33:23;;;;;;;179.47;58.30;;;;;;;12.82;81.57;101988.19;5030473;28;20456;-68
2021/09/27 01:36:03;;;;;;;169.67;51.27;;;;;;;12.83;80.19;101984.53;5031669;28;20937;-68
2021/09/27 01:38:36;;;;;;;170.50;53.03;;;;;;;12.82;79.78;101982.78;5031664;28;20440;-67
2021/09/27 01:41:17;;;;;;;176.30;56.83;;;;;;;12.65;80.38;101964.91;5031747;28;20456;-67
2021/09/27 01:43:50;;;;;;;173.53;50.63;;;;;;;12.57;82.32;101980.66;5032046;28;21063;-68
2021/09/27 01:46:27;;;;;;;167.73;52.70;;;;;;;12.51;82.67;101977.41;5031327;28;20717;-68
2021/09/27 01:49:01;;;;;;;160.80;47.50;;;;;;;12.55;81.34;101974.47;5031951;28;20521;-68
2021/09/27 01:51:36;;;;;;;160.40;45.53;;;;;;;12.54;80.74;101977.22;5031402;28;20454;-68
2021/09/27 01:54:14;;;;;;;180.37;51.00;;;;;;;12.54;79.89;101977.22;5031777;28;20997;-68
2021/09/27 01:56:51;;;;;;;187.70;60.57;;;;;;;12.44;80.24;101974.19;5031312;28;20509;-67
2021/09/27 01:59:29;;;;;;;186.67;56.97;;;;;;;12.22;80.60;101941.31;5031271;28;20451;-68
2021/09/27 02:02:04;;;;;;;187.10;57.50;;;;;;;12.33;81.30;101982.00;5018538;28;20999;-68
2021/09/27 02:04:41;;;;;;;190.60;60.67;;;;;;;12.37;80.47;101986.25;5030948;28;21036;-68
2021/09/27 02:07:09;;;;;;;167.10;50.83;;;;;;;12.37;80.46;101978.19;5031386;28;20942;-68
2021/09/27 02:09:46;;;;;;;157.53;43.30;;;;;;;12.36;80.42;101979.13;5031096;28;20533;-68
2021/09/27 02:12:24;;;;;;;157.40;46.37;;;;;;;12.29;80.24;101985.81;5017583;28;20451;-68
2021/09/27 02:14:58;;;;;;;166.30;43.57;;;;;;;12.27;79.75;101985.03;5031233;28;21212;-68
2021/09/27 02:17:34;;;;;;;141.83;39.77;;;;;;;12.21;80.77;101979.97;5030974;28;20493;-68
2021/09/27 02:20:10;;;;;;;122.03;35.77;;;;;;;12.10;81.29;101978.72;5030959;28;20482;-68
2021/09/27 02:22:43;;;;;;;97.77;32.80;;;;;;;12.03;80.47;101974.66;5030692;28;20521;-68
2021/09/27 02:25:16;;;;;;;111.13;36.70;;;;;;;12.03;80.75;101960.31;5030592;28;20487;-69
2021/09/27 02:27:46;;;;;;;116.50;35.87;;;;;;;12.14;79.88;101984.81;5030938;28;20430;-68
2021/09/27 02:30:18;;;;;;;119.97;35.47;;;;;;;12.15;79.78;101985.69;5030655;28;20509;-68
2021/09/27 02:32:53;;;;;;;118.30;35.07;;;;;;;12.15;78.39;101985.69;5030631;28;20448;-68
2021/09/27 02:35:28;;;;;;;118.63;35.87;;;;;;;12.16;78.27;101987.44;5030461;28;20433;-68
2021/09/27 02:38:03;;;;;;;121.00;35.80;;;;;;;12.13;77.73;101983.94;5030837;28;20443;-68
2021/09/27 02:40:37;;;;;;;106.57;32.87;;;;;;;12.02;79.09;101991.75;5030319;28;20477;-67
2021/09/27 02:43:08;;;;;;;102.70;30.57;;;;;;;12.02;78.63;101978.28;5028946;28;20941;-68
2021/09/27 02:45:38;;;;;;;106.63;32.47;;;;;;;12.01;77.59;101971.16;5030286;28;20521;-67
2021/09/27 02:48:14;;;;;;;112.13;33.03;;;;;;;11.85;77.23;101962.16;5030341;28;20862;-68
2021/09/27 02:50:46;;;;;;;115.90;34.90;;;;;;;11.98;76.47;101987.50;5034526;28;20453;-68
2021/09/27 02:53:16;;;;;;;116.07;34.63;;;;;;;11.93;77.58;101994.03;5039012;28;20455;-68
2021/09/27 02:56:15;;;;;;;115.53;32.60;;;;;;;11.85;77.92;101982.81;5030220;28;20459;-69
2021/09/27 02:58:48;;;;;;;115.40;32.10;;;;;;;11.80;77.08;101983.94;5030344;28;20839;-69
2021/09/27 03:01:37;;;;;;;117.40;35.23;;;;;;;11.79;76.50;101978.63;5042945;28;20470;-68
2021/09/27 03:04:10;;;;;;;119.10;34.53;;;;;;;11.77;76.28;101980.50;5029947;28;20534;-68
2021/09/27 03:06:50;;;;;;;123.30;38.70;;;;;;;11.71;76.75;101979.00;5029702;28;20460;-68
2021/09/27 03:09:27;;;;;;;118.87;34.93;;;;;;;11.70;75.88;101979.09;5029337;28;20531;-68
2021/09/27 03:12:12;;;;;;;117.33;35.27;;;;;;;11.68;76.51;101975.63;5029621;28;21173;-69
2021/09/27 03:14:59;;;;;;;115.43;32.93;;;;;;;11.61;75.81;101980.44;5029279;28;21022;-69
2021/09/27 03:17:34;;;;;;;116.17;34.67;;;;;;;11.55;74.92;101969.13;5043290;28;21062;-68
2021/09/27 03:20:23;;;;;;;118.47;33.57;;;;;;;11.51;75.59;101971.97;5016691;28;20479;-69
2021/09/27 03:22:58;;;;;;;120.43;32.13;;;;;;;11.47;75.57;101969.53;5028807;28;20467;-67
2021/09/27 03:25:39;;;;;;;121.47;32.77;;;;;;;11.42;74.81;101964.38;5029340;28;20486;-69
2021/09/27 03:28:17;;;;;;;120.97;34.03;;;;;;;11.02;74.97;101906.41;5029099;28;20455;-67
2021/09/27 03:31:00;;;;;;;115.67;31.63;;;;;;;11.28;77.65;101972.28;5029274;28;20451;-68
2021/09/27 03:33:42;;;;;;;117.47;33.00;;;;;;;11.06;76.79;101925.94;5026736;28;20815;-67
2021/09/27 03:36:26;;;;;;;119.77;32.93;;;;;;;11.35;76.46;101962.09;5026159;28;20522;-67
2021/09/27 03:39:05;;;;;;;115.20;31.63;;;;;;;11.34;75.56;101974.69;5029189;28;20543;-68
2021/09/27 03:41:39;;;;;;;110.43;31.93;;;;;;;11.36;75.72;101978.16;5029293;28;20460;-68
2021/09/27 03:44:14;;;;;;;114.77;31.67;;;;;;;11.24;77.46;101968.00;5029305;28;20483;-67
2021/09/27 03:46:52;;;;;;;120.90;33.03;;;;;;;11.36;76.13;101978.16;5029649;28;20447;-68
2021/09/27 03:49:26;;;;;;;122.60;33.33;;;;;;;11.40;75.12;101978.88;5028896;28;20451;-67
2021/09/27 03:52:00;;;;;;;124.57;34.33;;;;;;;11.40;75.31;101976.19;5043323;28;21074;-69
2021/09/27 03:54:34;;;;;;;124.40;34.70;;;;;;;11.40;78.31;101974.34;5029117;28;20451;-68
2021/09/27 03:57:08;;;;;;;124.47;33.53;;;;;;;10.96;76.45;101904.00;5029202;28;21000;-68
2021/09/27 03:59:43;;;;;;;124.07;32.90;;;;;;;11.46;76.97;101975.84;5028478;28;20458;-68
2021/09/27 04:02:18;;;;;;;123.10;33.10;;;;;;;11.42;77.56;101974.28;5027316;28;20470;-68
2021/09/27 04:04:55;;;;;;;121.47;33.13;;;;;;;11.44;75.62;101984.00;5028806;28;20479;-68
2021/09/27 04:07:34;;;;;;;124.73;34.20;;;;;;;11.47;76.18;101982.97;5027431;28;20923;-68
2021/09/27 04:10:16;;;;;;;127.77;34.73;;;;;;;11.44;77.74;101988.53;5028152;28;20433;-68
2021/09/27 04:12:58;;;;;;;129.27;35.77;;;;;;;11.48;76.15;101980.22;5026658;28;20455;-68
2021/09/27 04:15:42;;;;;;;126.20;34.40;;;;;;;11.52;76.05;101986.28;5027779;28;20467;-68
2021/09/27 04:18:15;;;;;;;126.30;36.27;;;;;;;11.48;79.46;101977.50;5025967;28;20452;-69
2021/09/27 04:20:56;;;;;;;127.83;37.50;;;;;;;11.45;79.81;101975.00;5026649;28;20525;-68
2021/09/27 04:23:48;;;;;;;128.50;37.53;;;;;;;11.48;83.65;101979.34;5027212;28;20460;-68
2021/09/27 04:26:34;;;;;;;126.60;37.10;;;;;;;11.47;80.89;101970.41;5027438;28;20677;-67
2021/09/27 04:29:15;;;;;;;119.50;33.03;;;;;;;11.57;79.66;101977.97;5024904;28;21022;-67
2021/09/27 04:31:50;;;;;;;107.50;33.03;;;;;;;11.58;80.68;101979.72;5024870;28;20523;-68
2021/09/27 04:34:38;;;;;;;110.67;33.27;;;;;;;11.56;82.95;101970.84;5026463;28;20470;-67
2021/09/27 04:37:07;;;;;;;117.50;37.50;;;;;;;11.42;82.31;101956.31;5027407;28;20444;-68
2021/09/27 04:39:39;;;;;;;115.77;34.30;;;;;;;11.62;82.12;101975.91;5027498;28;20451;-68
2021/09/27 04:42:33;;;;;;;126.00;34.30;;;;;;;11.32;84.23;101925.44;5027244;28;20447;-67
2021/09/27 04:45:17;;;;;;;128.60;33.97;;;;;;;11.68;85.44;101981.00;5028276;28;20467;-68
2021/09/27 04:47:57;;;;;;;130.23;38.23;;;;;;;11.66;85.02;101966.75;5022491;28;20456;-68
2021/09/27 04:50:46;;;;;;;130.83;36.47;;;;;;;11.75;84.15;101979.72;5027942;28;20497;-69
2021/09/27 04:53:29;;;;;;;130.83;36.93;;;;;;;11.61;86.19;101968.78;5043322;28;20440;-67
2021/09/27 04:56:24;;;;;;;133.30;40.10;;;;;;;11.80;84.00;101980.38;5029048;28;20417;-69
2021/09/27 04:59:12;;;;;;;132.47;40.80;;;;;;;11.76;85.10;101986.84;5028639;28;20452;-67
2021/09/27 05:02:21;;;;;;;113.83;35.67;;;;;;;11.78;84.88;101982.28;5033032;28;21670;-68
2021/09/27 05:04:52;;;;;;;102.00;31.97;;;;;;;11.79;84.86;101989.41;4956563;28;20491;-68
2021/09/27 05:07:53;;;;;;;108.93;32.00;;;;;;;11.76;85.74;101982.34;5024578;28;20494;-68
2021/09/27 05:10:51;;;;;;;114.47;33.83;;;;;;;11.55;85.82;101950.28;4991471;28;20462;-68
2021/09/27 05:13:44;;;;;;;115.80;36.27;;;;;;;11.83;87.85;101993.66;5026958;28;20467;-67
2021/09/27 05:16:24;;;;;;;112.03;31.90;;;;;;;11.91;87.78;101995.94;5020473;28;20507;-68
2021/09/27 05:19:12;;;;;;;122.70;36.60;;;;;;;12.03;87.58;101998.00;5024443;28;20463;-67
2021/09/27 05:22:04;;;;;;;131.97;37.20;;;;;;;12.16;88.32;101992.81;5027858;28;20487;-67
2021/09/27 05:25:03;;;;;;;131.23;37.77;;;;;;;12.25;88.30;101990.50;5026081;28;20505;-67
2021/09/27 05:27:59;;;;;;;133.90;41.37;;;;;;;12.35;88.11;101989.03;5017586;28;20468;-67
2021/09/27 05:30:45;;;;;;;130.30;41.20;;;;;;;12.49;87.93;102001.72;5026918;28;20505;-68
2021/09/27 05:33:22;;;;;;;112.37;35.27;;;;;;;12.58;89.10;102006.63;5028128;28;20554;-68
2021/09/27 05:36:11;;;;;;;107.77;35.80;;;;;;;12.70;88.49;102007.75;5026763;28;20552;-68
2021/09/27 05:38:50;;;;;;;114.87;36.47;;;;;;;12.83;88.52;102006.09;5020670;28;20501;-68
2021/09/27 05:41:28;;;;;;;122.37;38.70;;;;;;;12.89;88.14;102004.91;5027568;28;20459;-68
2021/09/27 05:44:09;;;;;;;135.77;42.30;;;;;;;13.00;88.12;102007.84;5033973;28;20458;-68
2021/09/27 05:47:01;;;;;;;113.93;37.53;;;;;;;13.12;87.59;101998.16;5016763;28;20898;-68
2021/09/27 05:49:39;;;;;;;132.57;35.90;;;;;;;13.21;87.39;102001.25;5031861;28;20965;-68
2021/09/27 05:52:12;;;;;;;136.37;35.47;;;;;;;13.31;87.36;102013.22;5034951;28;20943;-67
2021/09/27 05:54:49;;;;;;;118.73;33.93;;;;;;;13.44;87.00;101999.00;5026414;28;20463;-67
2021/09/27 05:57:35;;;;;;;130.63;36.03;;;;;;;13.53;86.17;102004.72;5029206;28;20517;-68
2021/09/27 06:00:10;;;;;;;119.60;36.17;;;;;;;13.56;86.05;102001.84;5029954;28;20463;-68
2021/09/27 06:02:49;;;;;;;125.33;38.37;;;;;;;13.66;85.79;102005.72;5025658;28;20874;-68
2021/09/27 06:05:26;;;;;;;125.77;36.30;;;;;;;13.75;85.57;102006.13;5029384;28;20487;-67
2021/09/27 06:08:00;;;;;;;135.47;39.37;;;;;;;13.85;85.21;102010.03;5030598;28;20462;-67
2021/09/27 06:10:38;;;;;;;145.57;41.37;;;;;;;13.82;84.70;102002.97;5029591;28;20462;-67
2021/09/27 06:13:17;;;;;;;142.17;45.07;;;;;;;13.93;84.94;102008.56;5022906;28;20467;-68
2021/09/27 06:15:49;;;;;;;141.77;42.23;;;;;;;14.02;84.55;102009.81;5027030;28;20530;-67
2021/09/27 06:18:49;;;;;;;141.60;43.03;;;;;;;14.09;83.86;101994.13;5027931;28;20463;-67
2021/09/27 06:21:48;;;;;;;133.70;40.37;;;;;;;13.96;83.80;101988.59;5021802;28;20475;-67
2021/09/27 06:24:30;;;;;;;125.50;40.97;;;;;;;14.32;82.92;102006.19;5031496;28;20997;-66
2021/09/27 06:27:04;;;;;;;142.33;45.53;;;;;;;14.46;83.39;102001.69;5030744;28;20475;-66
2021/09/27 06:29:45;;;;;;;148.33;42.83;;;;;;;14.52;82.20;101998.59;5028108;28;20510;-67
2021/09/27 06:32:24;;;;;;;141.83;40.57;;;;;;;14.64;81.61;102012.28;5020780;28;20476;-66
2021/09/27 06:34:55;;;;;;;126.33;38.70;;;;;;;14.56;81.99;102008.22;5017720;28;20285;-68
2021/09/27 06:37:26;;;;;;;145.53;39.47;;;;;;;14.48;81.60;101983.53;5026261;28;20460;-68
2021/09/27 06:39:55;;;;;;;140.73;40.17;;;;;;;14.71;81.30;102002.81;5015707;28;20452;-68
2021/09/27 06:42:23;;;;;;;133.43;40.50;;;;;;;14.80;81.02;102021.13;5025369;28;20458;-68
2021/09/27 06:44:53;;;;;;;115.10;38.63;;;;;;;14.96;81.48;102019.16;5022041;28;20866;-68
2021/09/27 06:47:21;;;;;;;116.80;39.63;;;;;;;15.02;80.72;102018.78;5030564;28;21248;-68
2021/09/27 06:49:49;;;;;;;125.53;42.23;;;;;;;15.05;79.70;102002.34;5027048;28;20463;-68
2021/09/27 06:52:17;;;;;;;125.87;41.60;;;;;;;15.17;79.73;102017.75;5029456;28;20958;-69
2021/09/27 06:54:46;;;;;;;136.00;42.77;;;;;;;15.41;79.08;102019.78;5030863;28;20455;-69
2021/09/27 06:57:14;;;;;;;129.57;41.27;;;;;;;15.40;78.44;102024.34;5044267;28;20483;-69
2021/09/27 06:59:42;;;;;;;134.30;42.97;;;;;;;15.37;78.91;102023.66;5022640;28;21154;-69
2021/09/27 07:02:19;;;;;;;143.80;37.90;;;;;;;15.40;78.18;102023.47;5030929;28;20509;-69
2021/09/27 07:04:47;;;;;;;132.17;36.30;;;;;;;15.45;78.76;102021.31;5027877;28;20536;-69
2021/09/27 07:07:16;;;;;;;133.00;35.47;;;;;;;15.57;78.79;102025.00;5026839;28;20506;-69
2021/09/27 07:09:44;;;;;;;158.23;40.20;;;;;;;15.59;78.26;102025.81;5026756;28;20475;-69
2021/09/27 07:12:14;;;;;;;156.67;40.70;;;;;;;15.60;77.70;102020.28;5041359;28;20521;-69
2021/09/27 07:14:42;;;;;;;157.47;41.70;;;;;;;15.60;77.93;102033.81;5045502;28;20456;-69
2021/09/27 07:17:10;;;;;;;158.37;40.33;;;;;;;15.59;77.94;102034.78;5030589;28;20463;-70
2021/09/27 07:19:40;;;;;;;153.83;39.67;;;;;;;15.62;78.16;102040.03;5028652;28;20514;-69
2021/09/27 07:22:21;;;;;;;154.47;41.83;;;;;;;15.59;77.90;102020.38;5027439;28;20502;-69
2021/09/27 07:24:50;;;;;;;142.10;38.30;;;;;;;15.80;77.48;102033.34;5030547;28;20456;-69
2021/09/27 07:27:19;;;;;;;122.73;35.50;;;;;;;15.94;77.41;102039.66;5039704;28;20492;-68
2021/09/27 07:29:48;;;;;;;123.70;35.17;;;;;;;15.88;77.30;102040.06;5017224;28;20462;-69
2021/09/27 07:32:16;;;;;;;123.30;35.00;;;;;;;15.93;76.73;102043.34;5020239;28;20464;-69
2021/09/27 07:34:44;;;;;;;120.27;34.97;;;;;;;15.88;76.79;102035.50;5029201;28;20509;-69
2021/09/27 07:37:12;;;;;;;126.10;35.40;;;;;;;15.82;76.35;102034.09;5030367;28;20443;-69
2021/09/27 07:39:40;;;;;;;142.30;39.70;;;;;;;15.96;77.25;102043.13;5032514;28;20467;-69
2021/09/27 07:42:08;;;;;;;144.03;38.27;;;;;;;15.95;77.70;102038.69;5021417;28;20460;-68
2021/09/27 07:44:38;;;;;;;148.37;38.80;;;;;;;15.97;77.22;102042.16;5026160;28;20460;-68
2021/09/27 07:47:07;;;;;;;145.43;37.97;;;;;;;16.11;76.98;102045.63;5022070;28;20527;-69
2021/09/27 07:49:35;;;;;;;152.03;39.97;;;;;;;16.24;77.21;102037.50;5023579;28;20509;-69
2021/09/27 07:52:04;;;;;;;148.97;39.30;;;;;;;16.21;76.81;102040.41;5043794;28;20455;-69
2021/09/27 07:54:32;;;;;;;147.60;40.37;;;;;;;16.22;75.44;102042.13;5029600;28;20463;-69
2021/09/27 07:57:01;;;;;;;143.60;39.67;;;;;;;16.20;76.15;102041.38;5021445;28;20488;-70
2021/09/27 07:59:29;;;;;;;141.97;38.63;;;;;;;16.17;75.56;102032.59;5025382;28;20451;-70
2021/09/27 08:01:59;;;;;;;141.53;37.93;;;;;;;16.28;75.08;102027.31;5022919;28;20473;-68
2021/09/27 08:04:27;;;;;;;141.43;38.30;;;;;;;16.34;75.83;102033.16;5028175;28;20451;-68
2021/09/27 08:06:55;;;;;;;143.37;38.70;;;;;;;16.49;76.66;102030.31;5044552;28;20812;-69
2021/09/27 08:09:23;;;;;;;144.53;38.30;;;;;;;16.53;75.70;102026.38;5022581;28;20456;-69
2021/09/27 08:11:51;;;;;;;148.03;41.03;;;;;;;16.69;76.16;102027.94;5029176;28;20466;-68
2021/09/27 08:14:19;;;;;;;148.00;40.43;;;;;;;16.72;74.43;102033.13;5029701;28;20456;-69
2021/09/27 08:16:47;;;;;;;148.67;40.80;;;;;;;16.69;74.40;102027.06;5042050;28;20467;-69
2021/09/27 08:19:19;;;;;;;153.13;43.50;;;;;;;16.58;73.85;102030.53;5028042;28;20806;-68
2021/09/27 08:21:47;;;;;;;162.43;44.90;;;;;;;16.63;74.58;102030.19;5029185;28;20588;-68
2021/09/27 08:24:14;;;;;;;163.27;45.47;;;;;;;16.69;74.13;102032.50;5043687;28;20527;-69
2021/09/27 08:26:42;;;;;;;158.27;43.20;;;;;;;16.72;73.23;102032.25;5029326;28;20483;-69
2021/09/27 08:29:11;;;;;;;149.47;42.97;;;;;;;16.64;73.07;102031.94;5029406;28;20453;-69
2021/09/27 08:31:40;;;;;;;145.33;41.20;;;;;;;16.77;73.11;102036.38;5029242;28;20922;-68
2021/09/27 08:34:09;;;;;;;160.00;46.17;;;;;;;16.63;73.02;102017.50;5029283;28;20462;-69
2021/09/27 08:36:38;;;;;;;150.00;44.03;;;;;;;16.79;73.69;102028.13;5028720;28;20451;-68
2021/09/27 08:39:07;;;;;;;156.63;43.50;;;;;;;17.00;73.26;102025.66;5029187;28;20456;-70
2021/09/27 08:41:46;;;;;;;155.43;44.70;;;;;;;17.04;71.65;102032.59;5028977;28;20462;-68
2021/09/27 08:44:30;;;;;;;155.43;48.53;;;;;;;17.07;72.00;102035.09;5029454;28;20458;-68
2021/09/27 08:47:03;;;;;;;160.93;47.00;;;;;;;17.01;71.46;102031.00;5029202;28;20472;-70
2021/09/27 08:49:39;;;;;;;167.50;56.20;;;;;;;17.04;71.12;102028.03;5029076;28;20920;-68
2021/09/27 08:52:11;;;;;;;157.60;45.83;;;;;;;17.05;72.17;102021.63;5043154;28;20798;-69
2021/09/27 08:54:40;;;;;;;161.63;48.77;;;;;;;17.10;70.29;102025.84;5028732;28;20462;-69
2021/09/27 08:57:18;;;;;;;153.23;48.93;;;;;;;17.03;69.75;102026.31;5029039;28;20436;-69
2021/09/27 08:59:54;;;;;;;160.00;51.67;;;;;;;17.03;70.16;102020.88;5028809;28;20452;-69
2021/09/27 09:02:32;;;;;;;158.20;49.63;;;;;;;17.14;70.92;102027.34;5029208;28;20451;-69
2021/09/27 09:05:11;;;;;;;139.40;43.43;;;;;;;17.26;70.00;102026.44;5044590;28;20577;-69
2021/09/27 09:07:47;;;;;;;160.70;46.87;;;;;;;17.27;69.66;102017.31;5014911;28;20973;-69
2021/09/27 09:10:31;;;;;;;158.70;43.03;;;;;;;17.29;67.91;102015.34;5029008;28;20455;-70
2021/09/27 09:13:04;;;;;;;156.03;41.07;;;;;;;17.19;68.23;101992.59;5017552;28;20784;-69
2021/09/27 09:15:32;;;;;;;154.77;41.50;;;;;;;17.44;68.77;102019.59;5028762;28;20502;-69
2021/09/27 09:18:03;;;;;;;155.60;42.53;;;;;;;17.31;68.85;102038.69;5029376;28;20463;-68
2021/09/27 09:20:44;;;;;;;150.00;41.87;;;;;;;17.05;68.40;101988.19;5029246;28;20480;-69
2021/09/27 09:23:20;;;;;;;162.10;45.70;;;;;;;17.27;68.37;102020.91;5028106;28;20446;-68
2021/09/27 09:25:48;;;;;;;159.47;42.77;;;;;;;17.34;67.94;102029.44;5037004;28;20810;-69
2021/09/27 09:28:17;;;;;;;158.23;47.93;;;;;;;17.30;67.65;102026.09;5032723;28;20494;-69
2021/09/27 09:30:50;;;;;;;169.30;53.47;;;;;;;17.14;68.29;101997.47;5032288;28;20515;-70
2021/09/27 09:33:44;;;;;;;165.80;50.77;;;;;;;17.33;68.66;102023.16;5032755;28;20500;-68
2021/09/27 09:36:17;;;;;;;160.93;45.23;;;;;;;17.34;68.17;102003.16;5032440;28;20448;-70
2021/09/27 09:38:47;;;;;;;159.90;42.83;;;;;;;17.29;68.48;102018.94;5032702;28;20459;-70
2021/09/27 09:41:17;;;;;;;159.80;42.17;;;;;;;17.32;67.89;102020.53;5047757;28;20464;-70
2021/09/27 09:43:47;;;;;;;156.87;41.07;;;;;;;17.37;67.76;102010.19;5031222;28;20944;-70
2021/09/27 09:46:30;;;;;;;154.83;40.87;;;;;;;17.46;66.61;102024.94;5032259;28;20484;-70
2021/09/27 09:49:08;;;;;;;142.53;38.90;;;;;;;17.49;65.96;102025.56;5032234;28;20907;-69
2021/09/27 09:51:40;;;;;;;163.50;43.93;;;;;;;17.45;65.47;102026.78;5045750;28;20950;-69
2021/09/27 09:54:14;;;;;;;162.77;41.70;;;;;;;17.51;65.99;102023.59;5019337;28;20450;-69
2021/09/27 09:56:47;;;;;;;166.57;45.27;;;;;;;17.48;65.58;102015.69;5031793;28;20517;-68
2021/09/27 09:59:18;;;;;;;168.53;43.73;;;;;;;17.53;65.89;102024.34;5032083;28;20469;-67
2021/09/27 10:01:49;;;;;;;164.07;42.40;;;;;;;17.60;65.56;102027.47;5031849;28;20798;-68
2021/09/27 10:04:23;;;;;;;161.47;41.80;;;;;;;17.61;65.33;102018.31;5018707;28;20519;-68
2021/09/27 10:06:59;;;;;;;161.03;42.30;;;;;;;17.62;64.94;102023.63;5032012;28;20816;-69
2021/09/27 10:09:33;;;;;;;164.87;44.83;;;;;;;17.66;65.41;102019.69;5031355;28;20551;-69
2021/09/27 10:12:04;;;;;;;163.63;41.87;;;;;;;17.68;65.56;102006.88;5031679;28;20480;-68
2021/09/27 10:14:39;;;;;;;165.43;45.33;;;;;;;17.78;64.73;102011.63;5046909;28;20971;-68
2021/09/27 10:17:27;;;;;;;159.00;41.67;;;;;;;17.35;64.05;101972.28;5031857;28;20469;-69
2021/09/27 10:19:59;;;;;;;159.87;47.80;;;;;;;17.69;63.33;102033.06;5026755;28;20550;-70
2021/09/27 10:22:29;;;;;;;161.60;48.93;;;;;;;17.63;63.46;102014.50;5031300;28;20806;-69
2021/09/27 10:25:00;;;;;;;156.83;49.03;;;;;;;17.71;63.75;102013.06;5031673;28;20835;-68
2021/09/27 10:27:34;;;;;;;159.40;55.30;;;;;;;17.81;63.77;102011.38;5031109;28;21032;-69
2021/09/27 10:30:10;;;;;;;167.07;53.47;;;;;;;17.67;63.09;101997.00;5031755;28;20569;-69
2021/09/27 10:32:42;;;;;;;166.60;51.57;;;;;;;17.88;63.06;102009.91;5029902;28;20464;-69
2021/09/27 10:35:25;;;;;;;154.93;47.20;;;;;;;17.80;62.50;102006.94;5031481;28;20452;-69
2021/09/27 10:37:59;;;;;;;162.03;51.23;;;;;;;17.78;61.78;102009.78;5027210;28;20881;-69
2021/09/27 10:40:29;;;;;;;159.93;45.40;;;;;;;17.85;61.58;102011.03;5029749;28;20696;-68
2021/09/27 10:42:57;;;;;;;172.07;56.33;;;;;;;17.88;63.04;102009.91;5031249;28;20454;-68
2021/09/27 10:45:26;;;;;;;170.70;51.13;;;;;;;17.58;62.40;101997.69;5031155;28;20223;-68
2021/09/27 10:47:57;;;;;;;175.10;51.50;;;;;;;17.69;63.13;102015.91;5030724;28;20573;-68
2021/09/27 10:50:29;;;;;;;169.13;54.13;;;;;;;17.60;62.05;102014.75;5035099;28;20963;-68
2021/09/27 10:53:03;;;;;;;154.93;48.90;;;;;;;17.67;61.21;102010.59;5038734;28;20467;-68
2021/09/27 10:55:49;;;;;;;165.63;60.03;;;;;;;17.65;62.03;102007.09;5030820;28;20217;-69
2021/09/27 10:58:37;;;;;;;163.70;59.17;;;;;;;17.66;61.96;102013.41;5030922;28;20453;-68
2021/09/27 11:01:07;;;;;;;160.20;56.17;;;;;;;17.69;62.21;102018.63;5019228;28;20328;-69
2021/09/27 11:03:42;;;;;;;155.60;55.93;;;;;;;17.78;62.55;102011.63;5045855;28;20272;-69
2021/09/27 11:06:27;;;;;;;151.50;55.67;;;;;;;18.03;62.30;102018.72;5046377;28;20213;-69
2021/09/27 11:09:00;;;;;;;140.47;51.27;;;;;;;18.13;61.84;102015.16;5030856;28;20831;-69
2021/09/27 11:11:45;;;;;;;158.03;53.70;;;;;;;18.06;60.18;102013.91;5026637;28;20219;-70
2021/09/27 11:14:23;;;;;;;145.57;45.53;;;;;;;17.97;60.34;102018.22;5030819;28;20451;-70
2021/09/27 11:16:59;;;;;;;150.07;53.77;;;;;;;18.06;60.60;102016.66;5031256;28;20644;-68
2021/09/27 11:19:36;;;;;;;151.07;55.13;;;;;;;17.96;60.43;102007.47;5030014;28;20228;-68
2021/09/27 11:22:41;;;;;;;154.03;54.90;;;;;;;18.12;60.96;102020.72;5030829;28;20304;-69
2021/09/27 11:25:35;;;;;;;168.80;60.47;;;;;;;18.29;59.68;102015.66;4943689;28;20236;-69
2021/09/27 11:28:28;;;;;;;163.67;60.53;;;;;;;18.18;60.72;102009.34;5030279;28;20448;-68
2021/09/27 11:31:34;;;;;;;160.57;57.50;;;;;;;18.23;59.61;102016.16;5030449;28;20223;-69
2021/09/27 11:34:31;;;;;;;154.03;53.03;;;;;;;18.23;59.95;102024.31;5006251;28;20226;-68
2021/09/27 11:37:17;;;;;;;163.27;59.17;;;;;;;18.29;59.33;102006.63;5030312;28;20216;-69
2021/09/27 11:39:48;;;;;;;186.43;67.20;;;;;;;18.25;59.69;101995.13;5045120;28;20216;-69
2021/09/27 11:42:36;;;;;;;191.30;69.47;;;;;;;18.42;60.02;102007.41;5030031;28;20317;-69